createdAt,value
2023-04-08T00:01:18.475Z,15.75
2023-04-08T00:04:20.551Z,16.25
2023-04-08T00:07:23.259Z,15.80
2023-04-08T00:10:26.533Z,16.27
2023-04-08T00:13:29.245Z,16.00
2023-04-08T00:16:31.317Z,15.73
2023-04-08T00:19:36.128Z,15.43
2023-04-08T00:22:38.252Z,16.73
2023-04-08T00:25:40.957Z,16.05
2023-04-08T00:28:43.241Z,16.80
2023-04-08T00:31:45.840Z,15.27
2023-04-08T00:34:49.500Z,15.50
2023-04-08T00:37:52.357Z,16.15
2023-04-08T00:40:54.389Z,14.88
2023-04-08T00:43:57.133Z,15.40
2023-04-08T00:46:59.486Z,14.77
2023-04-08T00:50:02.043Z,15.10
2023-04-08T00:53:04.041Z,16.47
2023-04-08T00:56:06.130Z,16.38
2023-04-08T00:59:08.568Z,16.30
2023-04-08T01:02:30.065Z,16.13
2023-04-08T01:05:38.975Z,16.30
2023-04-08T01:08:41.195Z,17.30
2023-04-08T01:11:43.739Z,16.88
2023-04-08T01:14:46.311Z,16.00
2023-04-08T01:17:48.898Z,17.85
2023-04-08T01:20:51.388Z,17.60
2023-04-08T01:24:02.250Z,16.27
2023-04-08T01:27:04.364Z,17.67
2023-04-08T01:30:06.726Z,16.55
2023-04-08T01:33:10.545Z,16.23
2023-04-08T01:36:12.526Z,17.08
2023-04-08T01:39:17.488Z,16.50
2023-04-08T01:42:22.837Z,16.75
2023-04-08T01:45:25.572Z,16.63
2023-04-08T01:48:27.983Z,16.38
2023-04-08T01:51:31.907Z,16.63
2023-04-08T01:54:35.206Z,17.13
2023-04-08T01:57:38.372Z,16.88
2023-04-08T02:00:41.140Z,17.35
2023-04-08T02:03:44.508Z,17.88
2023-04-08T02:06:47.113Z,17.13
2023-04-08T02:09:49.161Z,16.80
2023-04-08T02:12:51.291Z,15.85
2023-04-08T02:16:09.039Z,17.03
2023-04-08T02:19:18.799Z,16.15
2023-04-08T02:22:26.250Z,17.13
2023-04-08T02:25:28.248Z,17.33
2023-04-08T02:28:30.769Z,17.25
2023-04-08T02:31:33.208Z,16.77
2023-04-08T02:34:35.406Z,16.08
2023-04-08T02:37:37.773Z,15.80
2023-04-08T02:40:40.305Z,17.25
2023-04-08T02:43:42.873Z,16.50
2023-04-08T02:46:44.936Z,15.70
2023-04-08T02:49:47.356Z,16.85
2023-04-08T02:52:49.304Z,16.42
2023-04-08T02:55:51.723Z,15.93
2023-04-08T02:58:55.154Z,16.73
2023-04-08T03:01:57.597Z,16.58
2023-04-08T03:04:59.864Z,15.77
2023-04-08T03:08:01.996Z,15.98
2023-04-08T03:11:04.409Z,16.73
2023-04-08T03:14:06.356Z,14.80
2023-04-08T03:17:08.386Z,13.47
2023-04-08T03:20:11.121Z,15.32
2023-04-08T03:23:13.529Z,14.98
2023-04-08T03:26:15.856Z,14.13
2023-04-08T03:29:18.309Z,12.45
2023-04-08T03:32:20.702Z,13.50
2023-04-08T03:35:23.223Z,12.18
2023-04-08T03:38:25.354Z,13.43
2023-04-08T03:41:27.527Z,12.98
2023-04-08T03:44:29.871Z,11.82
2023-04-08T03:47:31.958Z,11.93
2023-04-08T03:50:34.168Z,12.52
2023-04-08T03:53:36.159Z,12.55
2023-04-08T03:56:38.092Z,12.73
2023-04-08T03:59:41.255Z,12.40
2023-04-08T04:02:43.673Z,12.43
2023-04-08T04:05:46.078Z,13.25
2023-04-08T04:08:48.478Z,13.05
2023-04-08T04:11:50.762Z,12.02
2023-04-08T04:14:53.155Z,13.30
2023-04-08T04:17:55.780Z,12.03
2023-04-08T04:20:58.146Z,12.32
2023-04-08T04:24:00.623Z,12.80
2023-04-08T04:27:03.024Z,12.53
2023-04-08T04:30:05.884Z,13.50
2023-04-08T04:33:08.256Z,12.23
2023-04-08T04:36:11.095Z,13.00
2023-04-08T04:39:13.214Z,12.80
2023-04-08T04:42:15.717Z,13.60
2023-04-08T04:45:18.143Z,14.07
2023-04-08T04:48:20.445Z,12.20
2023-04-08T04:51:22.434Z,13.80
2023-04-08T04:54:24.442Z,13.75
2023-04-08T04:57:28.480Z,12.83
2023-04-08T05:00:30.611Z,13.20
2023-04-08T05:03:32.735Z,14.88
2023-04-08T05:06:35.076Z,13.65
2023-04-08T05:09:37.406Z,13.05
2023-04-08T05:12:39.593Z,12.32
2023-04-08T05:15:41.578Z,13.07
2023-04-08T05:18:43.828Z,12.43
2023-04-08T05:21:46.192Z,12.73
2023-04-08T05:24:48.999Z,12.48
2023-04-08T05:27:51.351Z,11.50
2023-04-08T05:30:53.548Z,13.40
2023-04-08T05:33:55.494Z,13.38
2023-04-08T05:36:57.996Z,12.70
2023-04-08T05:40:00.146Z,12.05
2023-04-08T05:43:02.229Z,13.88
2023-04-08T05:46:08.103Z,13.38
2023-04-08T05:49:10.196Z,13.87
2023-04-08T05:52:12.183Z,13.75
2023-04-08T05:55:14.616Z,13.18
2023-04-08T05:58:17.397Z,14.43
2023-04-08T06:01:19.511Z,12.52
2023-04-08T06:04:21.617Z,14.25
2023-04-08T06:07:23.582Z,13.57
2023-04-08T06:10:25.972Z,14.18
2023-04-08T06:13:28.389Z,14.35
2023-04-08T06:16:30.527Z,14.63
2023-04-08T06:19:32.856Z,15.67
2023-04-08T06:22:36.220Z,14.77
2023-04-08T06:25:38.855Z,15.30
2023-04-08T06:28:40.885Z,15.73
2023-04-08T06:31:42.871Z,14.50
2023-04-08T06:34:45.484Z,14.43
2023-04-08T06:37:47.486Z,14.18
2023-04-08T06:40:49.462Z,14.27
2023-04-08T06:43:51.996Z,14.55
2023-04-08T06:46:54.356Z,15.32
2023-04-08T06:49:57.301Z,31.27
2023-04-08T06:53:00.411Z,18.08
2023-04-08T06:56:02.503Z,18.45
2023-04-08T06:59:07.449Z,14.43
2023-04-08T07:02:09.505Z,17.17
2023-04-08T07:05:11.777Z,14.65
2023-04-08T07:08:13.750Z,13.60
2023-04-08T07:11:15.978Z,14.57
2023-04-08T07:14:18.214Z,14.75
2023-04-08T07:17:20.582Z,14.27
2023-04-08T07:20:23.454Z,16.60
2023-04-08T07:23:25.594Z,14.40
2023-04-08T07:26:28.711Z,13.38
2023-04-08T07:29:31.727Z,13.47
2023-04-08T07:32:33.994Z,13.65
2023-04-08T07:35:36.259Z,13.68
2023-04-08T07:38:39.089Z,12.90
2023-04-08T07:41:41.456Z,12.05
2023-04-08T07:44:43.523Z,13.98
2023-04-08T07:47:46.235Z,15.43
2023-04-08T07:51:08.600Z,15.03
2023-04-08T07:54:17.305Z,15.55
2023-04-08T07:57:19.395Z,14.52
2023-04-08T08:00:22.047Z,16.97
2023-04-08T08:03:24.204Z,16.23
2023-04-08T08:06:27.682Z,16.85
2023-04-08T08:09:31.985Z,17.42
2023-04-08T08:12:34.526Z,16.48
2023-04-08T08:15:36.674Z,16.48
2023-04-08T08:18:40.338Z,16.35
2023-04-08T08:21:42.493Z,16.77
2023-04-08T08:24:44.536Z,16.05
2023-04-08T08:27:46.473Z,14.13
2023-04-08T08:30:49.321Z,15.70
2023-04-08T08:33:51.623Z,14.05
2023-04-08T08:36:53.923Z,14.65
2023-04-08T08:39:56.292Z,13.23
2023-04-08T08:42:59.245Z,13.35
2023-04-08T08:46:01.832Z,12.82
2023-04-08T08:49:04.108Z,13.15
2023-04-08T08:52:06.981Z,15.07
2023-04-08T08:55:27.690Z,14.20
2023-04-08T08:58:31.122Z,13.60
2023-04-08T09:01:34.179Z,12.97
2023-04-08T09:04:37.100Z,12.43
2023-04-08T09:07:42.455Z,12.52
2023-04-08T09:10:44.441Z,15.13
2023-04-08T09:13:46.693Z,14.98
2023-04-08T09:16:48.862Z,13.57
2023-04-08T09:20:09.872Z,11.85
2023-04-08T09:23:12.435Z,15.30
2023-04-08T09:26:18.227Z,14.05
2023-04-08T09:32:28.121Z,15.50
2023-04-08T09:35:30.473Z,15.55
2023-04-08T09:38:32.432Z,15.55
2023-04-08T09:41:34.943Z,12.98
2023-04-08T09:44:37.261Z,14.00
2023-04-08T09:47:43.024Z,15.93
2023-04-08T09:50:47.515Z,22.25
2023-04-08T09:53:53.468Z,14.10
2023-04-08T09:57:01.137Z,14.80
2023-04-08T10:00:10.085Z,14.95
2023-04-08T10:03:28.671Z,14.87
2023-04-08T10:06:31.451Z,15.18
2023-04-08T10:09:33.980Z,15.02
2023-04-08T10:12:36.419Z,16.35
2023-04-08T10:15:40.859Z,14.07
2023-04-08T10:18:43.155Z,15.82
2023-04-08T10:21:51.038Z,16.00
2023-04-08T10:25:11.998Z,15.93
2023-04-08T10:28:20.286Z,14.35
2023-04-08T10:31:22.388Z,14.23
2023-04-08T10:34:26.490Z,14.83
2023-04-08T10:37:28.477Z,15.23
2023-04-08T10:40:41.763Z,14.85
2023-04-08T10:43:45.356Z,14.88
2023-04-08T10:46:48.196Z,14.38
2023-04-08T10:49:51.364Z,15.13
2023-04-08T10:52:54.490Z,14.43
2023-04-08T10:56:06.445Z,14.93
2023-04-08T10:59:08.451Z,14.15
2023-04-08T11:02:14.273Z,15.88
2023-04-08T11:05:17.406Z,14.77
2023-04-08T11:08:21.033Z,13.65
2023-04-08T11:11:23.997Z,15.32
2023-04-08T11:14:26.780Z,16.33
2023-04-08T11:17:29.159Z,15.35
2023-04-08T11:20:32.221Z,15.35
2023-04-08T11:23:34.441Z,15.38
2023-04-08T11:26:37.009Z,14.87
2023-04-08T11:29:39.781Z,14.18
2023-04-08T11:32:42.194Z,13.40
2023-04-08T11:35:44.347Z,12.30
2023-04-08T11:38:48.037Z,12.35
2023-04-08T11:41:50.190Z,12.60
2023-04-08T11:44:52.177Z,12.02
2023-04-08T11:47:54.199Z,13.05
2023-04-08T11:51:03.758Z,14.00
2023-04-08T11:54:07.416Z,13.55
2023-04-08T11:57:12.481Z,16.00
2023-04-08T12:00:15.284Z,13.43
2023-04-08T12:03:17.835Z,11.70
2023-04-08T12:06:19.930Z,12.77
2023-04-08T12:09:22.495Z,11.35
2023-04-08T12:12:24.650Z,13.77
2023-04-08T12:15:26.673Z,10.88
2023-04-08T12:18:28.819Z,12.77
2023-04-08T12:21:38.253Z,12.93
2023-04-08T12:24:42.794Z,10.88
2023-04-08T12:27:44.861Z,11.03
2023-04-08T12:30:46.969Z,11.43
2023-04-08T12:33:49.416Z,13.00
2023-04-08T12:36:52.057Z,12.43
2023-04-08T12:39:54.094Z,13.48
2023-04-08T12:42:56.791Z,10.68
2023-04-08T12:45:59.185Z,10.13
2023-04-08T12:49:04.610Z,11.75
2023-04-08T12:52:07.842Z,12.55
2023-04-08T12:55:10.308Z,11.57
2023-04-08T12:58:12.773Z,11.97
2023-04-08T13:01:14.808Z,12.73
2023-04-08T13:04:17.139Z,11.10
2023-04-08T13:07:19.487Z,11.30
2023-04-08T13:10:21.516Z,13.35
2023-04-08T13:13:24.279Z,12.90
2023-04-08T13:16:27.273Z,12.02
2023-04-08T13:19:29.908Z,13.32
2023-04-08T13:22:33.676Z,12.45
2023-04-08T13:25:36.159Z,9.60
2023-04-08T13:28:50.102Z,8.40
2023-04-08T13:31:58.700Z,10.75
2023-04-08T13:35:01.147Z,12.63
2023-04-08T13:38:03.213Z,16.43
2023-04-08T13:41:05.664Z,11.38
2023-04-08T13:44:08.152Z,11.95
2023-04-08T13:47:10.526Z,17.50
2023-04-08T13:50:13.090Z,11.18
2023-04-08T13:53:16.840Z,11.82
2023-04-08T13:56:21.165Z,10.13
2023-04-08T13:59:23.617Z,9.83
2023-04-08T14:02:26.091Z,8.88
2023-04-08T14:05:28.115Z,9.25
2023-04-08T14:08:30.314Z,8.90
2023-04-08T14:11:32.297Z,10.27
2023-04-08T14:14:34.633Z,13.95
2023-04-08T14:17:37.211Z,9.75
2023-04-08T14:20:39.695Z,8.30
2023-04-08T14:23:42.568Z,7.85
2023-04-08T14:26:44.725Z,15.52
2023-04-08T14:29:46.774Z,8.60
2023-04-08T14:32:49.182Z,10.05
2023-04-08T14:35:52.669Z,10.50
2023-04-08T14:38:55.408Z,17.13
2023-04-08T14:41:58.416Z,9.73
2023-04-08T14:45:01.102Z,7.95
2023-04-08T14:48:03.153Z,8.27
2023-04-08T14:51:06.178Z,10.43
2023-04-08T14:54:08.546Z,9.48
2023-04-08T14:57:10.633Z,10.73
2023-04-08T15:00:13.020Z,20.63
2023-04-08T15:03:34.293Z,8.82
2023-04-08T15:06:36.768Z,8.52
2023-04-08T15:09:39.125Z,10.57
2023-04-08T15:12:41.187Z,10.48
2023-04-08T15:15:43.798Z,12.45
2023-04-08T15:18:46.337Z,8.55
2023-04-08T15:21:48.298Z,8.50
2023-04-08T15:24:50.282Z,7.95
2023-04-08T15:27:52.503Z,18.13
2023-04-08T15:30:55.049Z,9.83
2023-04-08T15:33:58.453Z,8.07
2023-04-08T15:37:02.333Z,8.65
2023-04-08T15:40:04.439Z,8.32
2023-04-08T15:43:06.829Z,8.07
2023-04-08T15:46:09.312Z,15.50
2023-04-08T15:49:11.969Z,11.82
2023-04-08T15:52:14.092Z,23.10
2023-04-08T15:55:16.210Z,19.90
2023-04-08T15:58:18.503Z,31.33
2023-04-08T16:01:20.981Z,17.40
2023-04-08T16:04:23.093Z,21.13
2023-04-08T16:07:25.443Z,11.95
2023-04-08T16:10:27.756Z,18.77
2023-04-08T16:13:30.310Z,14.60
2023-04-08T16:16:33.035Z,18.40
2023-04-08T16:19:35.198Z,14.77
2023-04-08T16:22:37.237Z,14.50
2023-04-08T16:25:39.550Z,12.15
2023-04-08T16:28:42.305Z,10.70
2023-04-08T16:31:44.434Z,10.93
2023-04-08T16:34:46.760Z,9.02
2023-04-08T16:37:49.197Z,9.25
2023-04-08T16:40:51.904Z,9.73
2023-04-08T16:43:53.872Z,12.68
2023-04-08T16:46:56.470Z,10.82
2023-04-08T16:49:58.923Z,8.80
2023-04-08T16:53:01.605Z,9.63
2023-04-08T16:56:04.170Z,14.05
2023-04-08T16:59:07.066Z,22.30
2023-04-08T17:02:09.481Z,26.83
2023-04-08T17:05:11.707Z,30.55
2023-04-08T17:08:14.156Z,17.35
2023-04-08T17:11:16.493Z,23.33
2023-04-08T17:14:18.853Z,20.98
2023-04-08T17:17:21.242Z,17.25
2023-04-08T17:20:24.904Z,11.95
2023-04-08T17:23:27.258Z,10.43
2023-04-08T17:26:29.224Z,8.82
2023-04-08T17:29:31.757Z,10.60
2023-04-08T17:32:34.145Z,10.07
2023-04-08T17:35:36.365Z,8.50
2023-04-08T17:38:39.970Z,9.50
2023-04-08T17:41:44.683Z,9.50
2023-04-08T17:44:48.354Z,7.53
2023-04-08T17:47:50.585Z,8.02
2023-04-08T17:51:03.041Z,7.50
2023-04-08T17:54:05.916Z,10.57
2023-04-08T17:57:08.068Z,12.23
2023-04-08T18:00:10.689Z,11.60
2023-04-08T18:03:15.137Z,12.13
2023-04-08T18:06:18.088Z,10.73
2023-04-08T18:09:20.044Z,9.65
2023-04-08T18:12:22.213Z,10.35
2023-04-08T18:15:24.690Z,11.60
2023-04-08T18:18:27.142Z,13.45
2023-04-08T18:21:29.339Z,14.40
2023-04-08T18:24:31.499Z,13.83
2023-04-08T18:27:34.076Z,13.52
2023-04-08T18:30:36.544Z,12.27
2023-04-08T18:33:41.656Z,11.90
2023-04-08T18:36:43.788Z,13.10
2023-04-08T18:39:46.423Z,14.90
2023-04-08T18:42:48.977Z,14.80
2023-04-08T18:45:51.579Z,13.80
2023-04-08T18:48:53.709Z,12.88
2023-04-08T18:52:02.560Z,14.05
2023-04-08T18:55:05.412Z,14.70
2023-04-08T18:58:07.916Z,15.55
2023-04-08T19:01:11.009Z,16.48
2023-04-08T19:04:13.871Z,16.40
2023-04-08T19:07:17.272Z,32.42
2023-04-08T19:10:19.565Z,17.13
2023-04-08T19:13:23.445Z,12.60
2023-04-08T19:16:25.700Z,11.57
2023-04-08T19:19:28.083Z,12.43
2023-04-08T19:22:31.133Z,10.23
2023-04-08T19:25:33.187Z,12.30
2023-04-08T19:28:36.317Z,11.82
2023-04-08T19:31:39.133Z,11.45
2023-04-08T19:34:41.203Z,13.53
2023-04-08T19:37:43.224Z,11.55
2023-04-08T19:40:45.698Z,12.70
2023-04-08T19:43:48.005Z,12.70
2023-04-08T19:46:50.614Z,13.43
2023-04-08T19:49:53.157Z,13.85
2023-04-08T19:52:55.347Z,13.93
2023-04-08T19:56:03.709Z,15.37
2023-04-08T19:59:05.982Z,16.83
2023-04-08T20:02:08.731Z,17.85
2023-04-08T20:05:16.123Z,19.20
2023-04-08T20:08:18.178Z,18.75
2023-04-08T20:11:20.473Z,20.08
2023-04-08T20:14:22.501Z,18.92
2023-04-08T20:17:24.673Z,18.02
2023-04-08T20:20:28.910Z,20.52
2023-04-08T20:23:32.251Z,19.70
2023-04-08T20:26:34.573Z,19.03
2023-04-08T20:29:36.578Z,18.92
2023-04-08T20:32:39.016Z,19.48
2023-04-08T20:35:41.483Z,20.03
2023-04-08T20:38:43.975Z,21.77
2023-04-08T20:41:46.586Z,19.83
2023-04-08T20:44:49.090Z,21.65
2023-04-08T20:47:51.363Z,21.52
2023-04-08T20:50:53.799Z,22.77
2023-04-08T20:53:56.285Z,21.65
2023-04-08T20:56:58.664Z,21.50
2023-04-08T21:00:01.294Z,19.15
2023-04-08T21:03:03.493Z,19.55
2023-04-08T21:06:05.869Z,19.90
2023-04-08T21:09:08.220Z,21.52
2023-04-08T21:12:10.405Z,22.00
2023-04-08T21:15:12.410Z,21.15
2023-04-08T21:18:14.526Z,23.13
2023-04-08T21:21:16.986Z,24.58
2023-04-08T21:24:19.005Z,24.63
2023-04-08T21:27:21.126Z,25.60
2023-04-08T21:30:23.132Z,25.50
2023-04-08T21:33:25.108Z,23.38
2023-04-08T21:36:27.983Z,24.67
2023-04-08T21:39:30.005Z,24.90
2023-04-08T21:42:32.995Z,24.95
2023-04-08T21:45:35.080Z,23.17
2023-04-08T21:48:37.627Z,22.30
2023-04-08T21:51:40.993Z,22.25
2023-04-08T21:54:42.985Z,22.33
2023-04-08T21:57:44.969Z,20.83
2023-04-08T22:00:47.248Z,19.90
2023-04-08T22:03:49.702Z,19.60
2023-04-08T22:06:51.800Z,19.00
2023-04-08T22:09:54.673Z,18.73
2023-04-08T22:12:57.011Z,18.83
2023-04-08T22:15:59.152Z,19.17
2023-04-08T22:19:01.411Z,17.77
2023-04-08T22:22:03.502Z,18.92
2023-04-08T22:25:05.809Z,17.48
2023-04-08T22:28:07.769Z,18.43
2023-04-08T22:31:11.163Z,17.92
2023-04-08T22:34:13.428Z,17.42
2023-04-08T22:37:15.952Z,16.70
2023-04-08T22:40:18.123Z,17.65
2023-04-08T22:43:20.804Z,16.85
2023-04-08T22:46:22.917Z,17.88
2023-04-08T22:49:25.044Z,17.08
2023-04-08T22:52:26.981Z,18.55
2023-04-08T22:55:29.625Z,17.95
2023-04-08T22:58:32.105Z,18.97
2023-04-08T23:01:34.291Z,18.75
2023-04-08T23:04:36.694Z,19.33
2023-04-08T23:07:39.122Z,19.43
2023-04-08T23:10:41.758Z,18.63
2023-04-08T23:13:44.027Z,20.40
2023-04-08T23:16:46.110Z,20.83
2023-04-08T23:19:48.206Z,20.80
2023-04-08T23:22:51.176Z,22.98
2023-04-08T23:25:55.522Z,20.23
2023-04-08T23:28:58.006Z,19.47
2023-04-08T23:31:59.969Z,20.75
2023-04-08T23:35:02.299Z,20.83
2023-04-08T23:38:04.281Z,21.67
2023-04-08T23:41:06.561Z,21.05
2023-04-08T23:44:08.861Z,22.38
2023-04-08T23:47:11.201Z,23.33
2023-04-08T23:50:13.719Z,21.95
2023-04-08T23:53:15.751Z,22.45
2023-04-08T23:56:17.726Z,23.38
2023-04-08T23:59:20.118Z,23.50
